sensor_id;sensor_type;location;lat;lon;timestamp;pressure;altitude;pressure_sealevel;temperature;humidity
69058;BME280;56128;37.534;-122.308;2023-03-03T00:01:11;101798.84;;;11.10;60.83
69058;BME280;56128;37.534;-122.308;2023-03-03T00:03:37;101788.41;;;11.05;58.56
69058;BME280;56128;37.534;-122.308;2023-03-03T00:06:05;101784.00;;;11.04;58.62
69058;BME280;56128;37.534;-122.308;2023-03-03T00:08:34;101792.22;;;11.01;59.19
69058;BME280;56128;37.534;-122.308;2023-03-03T00:11:00;101782.75;;;10.95;59.30
69058;BME280;56128;37.534;-122.308;2023-03-03T00:13:30;101788.97;;;10.96;57.54
69058;BME280;56128;37.534;-122.308;2023-03-03T00:18:48;101783.03;;;10.91;60.18
69058;BME280;56128;37.534;-122.308;2023-03-03T00:23:47;101774.78;;;10.65;61.03
69058;BME280;56128;37.534;-122.308;2023-03-03T00:26:29;101794.56;;;10.62;62.40
69058;BME280;56128;37.534;-122.308;2023-03-03T00:28:58;101792.50;;;10.51;63.19
69058;BME280;56128;37.534;-122.308;2023-03-03T00:31:32;101809.63;;;10.49;65.51
69058;BME280;56128;37.534;-122.308;2023-03-03T00:36:53;101803.41;;;10.32;68.78
69058;BME280;56128;37.534;-122.308;2023-03-03T00:39:37;101807.75;;;10.19;72.51
69058;BME280;56128;37.534;-122.308;2023-03-03T00:42:14;101810.13;;;10.09;80.85
69058;BME280;56128;37.534;-122.308;2023-03-03T00:44:45;101814.19;;;10.00;96.51
69058;BME280;56128;37.534;-122.308;2023-03-03T00:52:35;101817.09;;;9.80;100.00
69058;BME280;56128;37.534;-122.308;2023-03-03T00:55:02;101805.63;;;9.62;100.00
69058;BME280;56128;37.534;-122.308;2023-03-03T00:57:29;101808.56;;;9.57;100.00
69058;BME280;56128;37.534;-122.308;2023-03-03T00:59:55;101807.50;;;9.43;100.00
69058;BME280;56128;37.534;-122.308;2023-03-03T01:02:21;101814.19;;;9.35;100.00
69058;BME280;56128;37.534;-122.308;2023-03-03T01:04:50;101806.88;;;9.22;100.00
69058;BME280;56128;37.534;-122.308;2023-03-03T01:07:17;101814.25;;;9.17;100.00
69058;BME280;56128;37.534;-122.308;2023-03-03T01:09:44;101810.28;;;9.08;100.00
69058;BME280;56128;37.534;-122.308;2023-03-03T01:12:11;101798.44;;;8.97;100.00
69058;BME280;56128;37.534;-122.308;2023-03-03T01:14:38;101799.66;;;8.91;100.00
69058;BME280;56128;37.534;-122.308;2023-03-03T01:17:05;101799.97;;;8.85;100.00
69058;BME280;56128;37.534;-122.308;2023-03-03T01:19:31;101810.00;;;8.80;100.00
69058;BME280;56128;37.534;-122.308;2023-03-03T01:21:57;101824.34;;;8.77;100.00
69058;BME280;56128;37.534;-122.308;2023-03-03T01:24:23;101825.78;;;8.67;100.00
69058;BME280;56128;37.534;-122.308;2023-03-03T01:26:50;101836.00;;;8.58;100.00
69058;BME280;56128;37.534;-122.308;2023-03-03T01:29:16;101831.72;;;8.54;100.00
69058;BME280;56128;37.534;-122.308;2023-03-03T01:31:42;101832.03;;;8.48;100.00
69058;BME280;56128;37.534;-122.308;2023-03-03T01:34:08;101838.38;;;8.45;100.00
69058;BME280;56128;37.534;-122.308;2023-03-03T01:36:34;101835.38;;;8.34;100.00
69058;BME280;56128;37.534;-122.308;2023-03-03T01:39:02;101843.63;;;8.29;100.00
69058;BME280;56128;37.534;-122.308;2023-03-03T01:41:30;101855.66;;;8.19;100.00
69058;BME280;56128;37.534;-122.308;2023-03-03T01:43:59;101872.44;;;8.21;100.00
69058;BME280;56128;37.534;-122.308;2023-03-03T01:46:45;101868.50;;;8.11;100.00
69058;BME280;56128;37.534;-122.308;2023-03-03T01:49:16;101867.06;;;8.04;100.00
69058;BME280;56128;37.534;-122.308;2023-03-03T01:51:54;101854.03;;;7.97;100.00
69058;BME280;56128;37.534;-122.308;2023-03-03T01:54:39;101848.22;;;7.89;100.00
69058;BME280;56128;37.534;-122.308;2023-03-03T01:57:14;101858.38;;;7.81;100.00
69058;BME280;56128;37.534;-122.308;2023-03-03T01:59:46;101861.97;;;7.80;100.00
69058;BME280;56128;37.534;-122.308;2023-03-03T02:02:14;101882.56;;;7.76;100.00
69058;BME280;56128;37.534;-122.308;2023-03-03T02:04:42;101876.56;;;7.71;100.00
69058;BME280;56128;37.534;-122.308;2023-03-03T02:07:10;101903.28;;;7.70;100.00
69058;BME280;56128;37.534;-122.308;2023-03-03T02:09:49;101914.88;;;7.69;100.00
69058;BME280;56128;37.534;-122.308;2023-03-03T02:12:18;101920.47;;;7.62;100.00
69058;BME280;56128;37.534;-122.308;2023-03-03T02:14:45;101931.06;;;7.64;100.00
69058;BME280;56128;37.534;-122.308;2023-03-03T02:17:11;101926.00;;;7.58;100.00
69058;BME280;56128;37.534;-122.308;2023-03-03T02:22:38;101949.00;;;7.60;100.00
69058;BME280;56128;37.534;-122.308;2023-03-03T02:25:07;101935.63;;;7.62;100.00
69058;BME280;56128;37.534;-122.308;2023-03-03T02:27:36;101932.16;;;7.60;100.00
69058;BME280;56128;37.534;-122.308;2023-03-03T02:30:14;101928.47;;;7.62;100.00
69058;BME280;56128;37.534;-122.308;2023-03-03T02:32:41;101936.53;;;7.61;100.00
69058;BME280;56128;37.534;-122.308;2023-03-03T02:35:31;101944.53;;;7.61;100.00
69058;BME280;56128;37.534;-122.308;2023-03-03T02:43:57;101962.53;;;7.56;100.00
69058;BME280;56128;37.534;-122.308;2023-03-03T02:46:24;101959.25;;;7.49;100.00
69058;BME280;56128;37.534;-122.308;2023-03-03T02:48:51;101969.84;;;7.51;100.00
69058;BME280;56128;37.534;-122.308;2023-03-03T02:51:17;101970.84;;;7.48;100.00
69058;BME280;56128;37.534;-122.308;2023-03-03T02:53:43;101969.31;;;7.42;100.00
69058;BME280;56128;37.534;-122.308;2023-03-03T02:56:09;101979.88;;;7.44;100.00
69058;BME280;56128;37.534;-122.308;2023-03-03T02:58:36;101980.13;;;7.39;100.00
69058;BME280;56128;37.534;-122.308;2023-03-03T03:01:04;101978.56;;;7.34;100.00
69058;BME280;56128;37.534;-122.308;2023-03-03T03:03:30;101964.59;;;7.28;100.00
69058;BME280;56128;37.534;-122.308;2023-03-03T03:05:57;101967.50;;;7.22;100.00
69058;BME280;56128;37.534;-122.308;2023-03-03T03:08:23;101971.97;;;7.22;100.00
69058;BME280;56128;37.534;-122.308;2023-03-03T03:10:49;101964.34;;;7.14;100.00
69058;BME280;56128;37.534;-122.308;2023-03-03T03:13:16;101945.16;;;7.06;100.00
69058;BME280;56128;37.534;-122.308;2023-03-03T03:15:45;101941.66;;;7.04;100.00
69058;BME280;56128;37.534;-122.308;2023-03-03T03:18:12;101912.00;;;6.92;100.00
69058;BME280;56128;37.534;-122.308;2023-03-03T03:20:38;101901.56;;;6.88;100.00
69058;BME280;56128;37.534;-122.308;2023-03-03T03:23:07;101914.91;;;6.86;100.00
69058;BME280;56128;37.534;-122.308;2023-03-03T03:25:33;101908.91;;;6.81;100.00
69058;BME280;56128;37.534;-122.308;2023-03-03T03:28:01;101904.78;;;6.74;100.00
69058;BME280;56128;37.534;-122.308;2023-03-03T03:30:27;101896.19;;;6.67;100.00
69058;BME280;56128;37.534;-122.308;2023-03-03T03:32:53;101897.19;;;6.64;100.00
69058;BME280;56128;37.534;-122.308;2023-03-03T03:35:19;101907.84;;;6.64;100.00
69058;BME280;56128;37.534;-122.308;2023-03-03T03:37:46;101908.84;;;6.62;100.00
69058;BME280;56128;37.534;-122.308;2023-03-03T03:40:12;101906.59;;;6.51;100.00
69058;BME280;56128;37.534;-122.308;2023-03-03T03:42:38;101915.63;;;6.47;100.00
69058;BME280;56128;37.534;-122.308;2023-03-03T03:45:06;101927.34;;;6.43;100.00
69058;BME280;56128;37.534;-122.308;2023-03-03T03:47:32;101930.00;;;6.43;100.00
69058;BME280;56128;37.534;-122.308;2023-03-03T03:49:58;101932.72;;;6.41;100.00
69058;BME280;56128;37.534;-122.308;2023-03-03T03:52:25;101928.50;;;6.36;100.00
69058;BME280;56128;37.534;-122.308;2023-03-03T03:54:51;101912.94;;;6.26;100.00
69058;BME280;56128;37.534;-122.308;2023-03-03T03:57:17;101917.50;;;6.23;100.00
69058;BME280;56128;37.534;-122.308;2023-03-03T03:59:44;101912.41;;;6.16;100.00
69058;BME280;56128;37.534;-122.308;2023-03-03T04:02:10;101908.19;;;6.11;100.00
69058;BME280;56128;37.534;-122.308;2023-03-03T04:04:36;101903.00;;;6.08;100.00
69058;BME280;56128;37.534;-122.308;2023-03-03T04:07:02;101895.22;;;6.03;100.00
69058;BME280;56128;37.534;-122.308;2023-03-03T04:09:29;101888.28;;;5.99;100.00
69058;BME280;56128;37.534;-122.308;2023-03-03T04:11:55;101877.88;;;5.93;100.00
69058;BME280;56128;37.534;-122.308;2023-03-03T04:14:21;101891.09;;;5.94;100.00
69058;BME280;56128;37.534;-122.308;2023-03-03T04:16:47;101888.59;;;5.90;100.00
69058;BME280;56128;37.534;-122.308;2023-03-03T04:19:14;101905.44;;;5.90;100.00
69058;BME280;56128;37.534;-122.308;2023-03-03T04:21:40;101914.44;;;5.86;100.00
69058;BME280;56128;37.534;-122.308;2023-03-03T04:24:06;101919.84;;;5.83;100.00
69058;BME280;56128;37.534;-122.308;2023-03-03T04:26:33;101933.75;;;5.90;100.00
69058;BME280;56128;37.534;-122.308;2023-03-03T04:28:59;101936.38;;;5.91;100.00
69058;BME280;56128;37.534;-122.308;2023-03-03T04:31:26;101912.25;;;5.97;100.00
69058;BME280;56128;37.534;-122.308;2023-03-03T04:33:53;101919.75;;;6.10;100.00
69058;BME280;56128;37.534;-122.308;2023-03-03T04:36:20;101923.59;;;6.03;100.00
69058;BME280;56128;37.534;-122.308;2023-03-03T04:38:46;101928.03;;;6.02;100.00
69058;BME280;56128;37.534;-122.308;2023-03-03T04:41:12;101916.75;;;5.95;100.00
69058;BME280;56128;37.534;-122.308;2023-03-03T04:43:38;101898.25;;;5.92;100.00
69058;BME280;56128;37.534;-122.308;2023-03-03T04:46:05;101916.06;;;5.90;100.00
69058;BME280;56128;37.534;-122.308;2023-03-03T04:48:31;101912.47;;;5.91;100.00
69058;BME280;56128;37.534;-122.308;2023-03-03T04:50:57;101936.31;;;5.93;100.00
69058;BME280;56128;37.534;-122.308;2023-03-03T04:53:24;101940.06;;;5.87;100.00
69058;BME280;56128;37.534;-122.308;2023-03-03T04:55:51;101933.13;;;5.83;100.00
69058;BME280;56128;37.534;-122.308;2023-03-03T04:58:19;101933.25;;;5.80;100.00
69058;BME280;56128;37.534;-122.308;2023-03-03T05:00:46;101941.94;;;5.85;100.00
69058;BME280;56128;37.534;-122.308;2023-03-03T05:03:13;101935.78;;;5.83;100.00
69058;BME280;56128;37.534;-122.308;2023-03-03T05:05:39;101933.38;;;5.77;100.00
69058;BME280;56128;37.534;-122.308;2023-03-03T05:08:06;101938.50;;;5.81;100.00
69058;BME280;56128;37.534;-122.308;2023-03-03T05:10:32;101945.38;;;5.87;100.00
69058;BME280;56128;37.534;-122.308;2023-03-03T05:12:58;101941.00;;;5.86;100.00
69058;BME280;56128;37.534;-122.308;2023-03-03T05:15:24;101952.56;;;5.85;100.00
69058;BME280;56128;37.534;-122.308;2023-03-03T05:17:51;101948.31;;;5.79;100.00
69058;BME280;56128;37.534;-122.308;2023-03-03T05:20:18;101954.59;;;5.77;100.00
69058;BME280;56128;37.534;-122.308;2023-03-03T05:22:44;101960.75;;;5.79;100.00
69058;BME280;56128;37.534;-122.308;2023-03-03T05:25:10;101968.03;;;5.74;100.00
69058;BME280;56128;37.534;-122.308;2023-03-03T05:27:37;101972.41;;;5.75;100.00
69058;BME280;56128;37.534;-122.308;2023-03-03T05:30:04;101961.06;;;5.69;100.00
69058;BME280;56128;37.534;-122.308;2023-03-03T05:32:30;101956.63;;;5.70;100.00
69058;BME280;56128;37.534;-122.308;2023-03-03T05:34:57;101959.16;;;5.73;100.00
69058;BME280;56128;37.534;-122.308;2023-03-03T05:37:23;101954.78;;;5.72;100.00
69058;BME280;56128;37.534;-122.308;2023-03-03T05:39:49;101936.44;;;5.66;100.00
69058;BME280;56128;37.534;-122.308;2023-03-03T05:42:15;101948.53;;;5.73;100.00
69058;BME280;56128;37.534;-122.308;2023-03-03T05:44:42;101943.41;;;5.68;100.00
69058;BME280;56128;37.534;-122.308;2023-03-03T05:47:08;101954.03;;;5.68;100.00
69058;BME280;56128;37.534;-122.308;2023-03-03T05:49:34;101956.78;;;5.65;100.00
69058;BME280;56128;37.534;-122.308;2023-03-03T05:52:01;101945.69;;;5.54;100.00
69058;BME280;56128;37.534;-122.308;2023-03-03T05:54:27;101946.63;;;5.53;100.00
69058;BME280;56128;37.534;-122.308;2023-03-03T05:56:53;101937.03;;;5.49;100.00
69058;BME280;56128;37.534;-122.308;2023-03-03T05:59:25;101930.16;;;5.43;100.00
69058;BME280;56128;37.534;-122.308;2023-03-03T06:01:51;101925.88;;;5.39;100.00
69058;BME280;56128;37.534;-122.308;2023-03-03T06:04:17;101934.81;;;5.36;100.00
69058;BME280;56128;37.534;-122.308;2023-03-03T06:06:44;101926.16;;;5.31;100.00
69058;BME280;56128;37.534;-122.308;2023-03-03T06:09:10;101938.56;;;5.31;100.00
69058;BME280;56128;37.534;-122.308;2023-03-03T06:11:36;101934.97;;;5.32;100.00
69058;BME280;56128;37.534;-122.308;2023-03-03T06:14:02;101923.84;;;5.22;100.00
69058;BME280;56128;37.534;-122.308;2023-03-03T06:16:28;101927.19;;;5.27;100.00
69058;BME280;56128;37.534;-122.308;2023-03-03T06:18:54;101922.75;;;5.28;100.00
69058;BME280;56128;37.534;-122.308;2023-03-03T06:21:21;101934.25;;;5.28;100.00
69058;BME280;56128;37.534;-122.308;2023-03-03T06:23:47;101930.00;;;5.23;100.00
69058;BME280;56128;37.534;-122.308;2023-03-03T06:26:13;101917.56;;;5.25;100.00
69058;BME280;56128;37.534;-122.308;2023-03-03T06:28:39;101910.28;;;5.30;100.00
69058;BME280;56128;37.534;-122.308;2023-03-03T06:31:05;101916.03;;;5.43;100.00
69058;BME280;56128;37.534;-122.308;2023-03-03T06:33:32;101917.69;;;5.45;100.00
69058;BME280;56128;37.534;-122.308;2023-03-03T06:35:58;101926.50;;;5.46;100.00
69058;BME280;56128;37.534;-122.308;2023-03-03T06:38:24;101932.44;;;5.54;100.00
69058;BME280;56128;37.534;-122.308;2023-03-03T06:40:50;101935.22;;;5.49;100.00
69058;BME280;56128;37.534;-122.308;2023-03-03T06:43:17;101923.81;;;5.47;100.00
69058;BME280;56128;37.534;-122.308;2023-03-03T06:45:44;101923.81;;;5.47;100.00
69058;BME280;56128;37.534;-122.308;2023-03-03T06:48:11;101919.38;;;5.48;100.00
69058;BME280;56128;37.534;-122.308;2023-03-03T06:50:37;101924.63;;;5.49;100.00
69058;BME280;56128;37.534;-122.308;2023-03-03T06:53:14;101931.72;;;5.49;100.00
69058;BME280;56128;37.534;-122.308;2023-03-03T06:55:41;101923.00;;;5.45;100.00
69058;BME280;56128;37.534;-122.308;2023-03-03T06:58:17;101923.00;;;5.45;100.00
69058;BME280;56128;37.534;-122.308;2023-03-03T07:00:58;101919.59;;;5.42;100.00
69058;BME280;56128;37.534;-122.308;2023-03-03T07:03:43;101914.41;;;5.39;100.00
69058;BME280;56128;37.534;-122.308;2023-03-03T07:06:24;101918.88;;;5.36;100.00
69058;BME280;56128;37.534;-122.308;2023-03-03T07:08:51;101925.13;;;5.35;100.00
69058;BME280;56128;37.534;-122.308;2023-03-03T07:11:21;101914.44;;;5.37;100.00
69058;BME280;56128;37.534;-122.308;2023-03-03T07:13:49;101923.38;;;5.34;100.00
69058;BME280;56128;37.534;-122.308;2023-03-03T07:16:17;101924.34;;;5.32;100.00
69058;BME280;56128;37.534;-122.308;2023-03-03T07:18:53;101931.69;;;5.25;100.00
69058;BME280;56128;37.534;-122.308;2023-03-03T07:21:30;101924.75;;;5.21;100.00
69058;BME280;56128;37.534;-122.308;2023-03-03T07:24:00;101920.41;;;5.18;100.00
69058;BME280;56128;37.534;-122.308;2023-03-03T07:26:33;101933.78;;;5.15;100.00
69058;BME280;56128;37.534;-122.308;2023-03-03T07:29:23;101932.31;;;5.07;100.00
69058;BME280;56128;37.534;-122.308;2023-03-03T07:31:52;101929.97;;;4.97;100.00
69058;BME280;56128;37.534;-122.308;2023-03-03T07:34:26;101942.47;;;4.94;100.00
69058;BME280;56128;37.534;-122.308;2023-03-03T07:36:58;101957.63;;;4.90;100.00
69058;BME280;56128;37.534;-122.308;2023-03-03T07:44:39;101958.84;;;4.80;100.00
69058;BME280;56128;37.534;-122.308;2023-03-03T07:47:35;101966.88;;;4.78;100.00
69058;BME280;56128;37.534;-122.308;2023-03-03T07:50:18;101967.06;;;4.72;100.00
69058;BME280;56128;37.534;-122.308;2023-03-03T07:53:14;101969.66;;;4.74;100.00
69058;BME280;56128;37.534;-122.308;2023-03-03T07:55:46;101969.13;;;4.62;100.00
69058;BME280;56128;37.534;-122.308;2023-03-03T08:03:18;101955.25;;;4.54;100.00
69058;BME280;56128;37.534;-122.308;2023-03-03T08:05:48;101957.91;;;4.54;100.00
69058;BME280;56128;37.534;-122.308;2023-03-03T08:10:49;101962.63;;;4.44;100.00
69058;BME280;56128;37.534;-122.308;2023-03-03T08:13:21;101957.47;;;4.39;100.00
69058;BME280;56128;37.534;-122.308;2023-03-03T08:15:54;101954.09;;;4.34;100.00
69058;BME280;56128;37.534;-122.308;2023-03-03T08:18:26;101952.44;;;4.32;100.00
69058;BME280;56128;37.534;-122.308;2023-03-03T08:21:12;101948.22;;;4.25;100.00
69058;BME280;56128;37.534;-122.308;2023-03-03T08:23:39;101938.59;;;4.22;100.00
69058;BME280;56128;37.534;-122.308;2023-03-03T08:26:07;101949.97;;;4.24;100.00
69058;BME280;56128;37.534;-122.308;2023-03-03T08:28:34;101951.84;;;4.22;100.00
69058;BME280;56128;37.534;-122.308;2023-03-03T08:31:00;101954.53;;;4.20;100.00
69058;BME280;56128;37.534;-122.308;2023-03-03T08:33:26;101947.50;;;4.19;100.00
69058;BME280;56128;37.534;-122.308;2023-03-03T08:35:53;101953.78;;;4.15;100.00
69058;BME280;56128;37.534;-122.308;2023-03-03T08:38:20;101946.78;;;4.13;100.00
69058;BME280;56128;37.534;-122.308;2023-03-03T08:40:48;101947.81;;;4.09;100.00
69058;BME280;56128;37.534;-122.308;2023-03-03T08:43:15;101952.38;;;4.03;100.00
69058;BME280;56128;37.534;-122.308;2023-03-03T08:45:51;101950.75;;;3.99;100.00
69058;BME280;56128;37.534;-122.308;2023-03-03T08:48:18;101959.59;;;3.98;100.00
69058;BME280;56128;37.534;-122.308;2023-03-03T08:50:45;101963.16;;;3.97;100.00
69058;BME280;56128;37.534;-122.308;2023-03-03T08:53:13;101958.13;;;3.88;100.00
69058;BME280;56128;37.534;-122.308;2023-03-03T08:55:40;101968.72;;;3.88;100.00
69058;BME280;56128;37.534;-122.308;2023-03-03T08:58:06;101964.47;;;3.82;100.00
69058;BME280;56128;37.534;-122.308;2023-03-03T09:00:32;101964.50;;;3.81;100.00
69058;BME280;56128;37.534;-122.308;2023-03-03T09:02:59;101962.09;;;3.73;100.00
69058;BME280;56128;37.534;-122.308;2023-03-03T09:05:25;101965.69;;;3.70;100.00
69058;BME280;56128;37.534;-122.308;2023-03-03T09:07:53;101970.19;;;3.67;100.00
69058;BME280;56128;37.534;-122.308;2023-03-03T09:10:22;101968.50;;;3.64;100.00
69058;BME280;56128;37.534;-122.308;2023-03-03T09:13:02;101961.59;;;3.58;100.00
69058;BME280;56128;37.534;-122.308;2023-03-03T09:15:33;101948.56;;;3.51;100.00
69058;BME280;56128;37.534;-122.308;2023-03-03T09:20:41;101955.88;;;3.41;100.00
69058;BME280;56128;37.534;-122.308;2023-03-03T09:23:30;101956.69;;;3.45;100.00
69058;BME280;56128;37.534;-122.308;2023-03-03T09:26:18;101956.63;;;3.48;100.00
69058;BME280;56128;37.534;-122.308;2023-03-03T09:28:47;101954.78;;;3.50;100.00
69058;BME280;56128;37.534;-122.308;2023-03-03T09:31:43;101954.66;;;3.54;100.00
69058;BME280;56128;37.534;-122.308;2023-03-03T09:36:40;101939.47;;;3.61;100.00
69058;BME280;56128;37.534;-122.308;2023-03-03T09:39:20;101954.31;;;3.67;100.00
69058;BME280;56128;37.534;-122.308;2023-03-03T09:50:54;101920.19;;;3.87;100.00
69058;BME280;56128;37.534;-122.308;2023-03-03T09:56:21;101897.06;;;3.93;100.00
69058;BME280;56128;37.534;-122.308;2023-03-03T09:59:14;101899.59;;;3.97;100.00
69058;BME280;56128;37.534;-122.308;2023-03-03T10:01:53;101891.50;;;4.02;100.00
69058;BME280;56128;37.534;-122.308;2023-03-03T10:04:41;101892.97;;;4.12;100.00
69058;BME280;56128;37.534;-122.308;2023-03-03T10:13:35;101872.25;;;4.25;100.00
69058;BME280;56128;37.534;-122.308;2023-03-03T10:16:14;101866.75;;;4.31;100.00
69058;BME280;56128;37.534;-122.308;2023-03-03T10:19:11;101853.50;;;4.31;100.00
69058;BME280;56128;37.534;-122.308;2023-03-03T10:22:19;101870.75;;;4.45;100.00
69058;BME280;56128;37.534;-122.308;2023-03-03T10:25:15;101860.97;;;4.47;100.00
69058;BME280;56128;37.534;-122.308;2023-03-03T10:27:58;101865.09;;;4.55;100.00
69058;BME280;56128;37.534;-122.308;2023-03-03T10:38:44;101870.31;;;4.84;100.00
69058;BME280;56128;37.534;-122.308;2023-03-03T10:44:15;101861.88;;;4.98;100.00
69058;BME280;56128;37.534;-122.308;2023-03-03T10:52:29;101868.56;;;5.10;100.00
69058;BME280;56128;37.534;-122.308;2023-03-03T11:03:32;101862.69;;;5.25;100.00
69058;BME280;56128;37.534;-122.308;2023-03-03T11:11:55;101843.72;;;5.36;100.00
69058;BME280;56128;37.534;-122.308;2023-03-03T11:14:32;101831.22;;;5.40;100.00
69058;BME280;56128;37.534;-122.308;2023-03-03T11:20:23;101828.34;;;5.44;100.00
69058;BME280;56128;37.534;-122.308;2023-03-03T11:23:23;101832.59;;;5.50;100.00
69058;BME280;56128;37.534;-122.308;2023-03-03T11:28:53;101821.75;;;5.56;100.00
69058;BME280;56128;37.534;-122.308;2023-03-03T11:34:49;101836.38;;;5.66;100.00
69058;BME280;56128;37.534;-122.308;2023-03-03T11:37:34;101838.06;;;5.69;100.00
69058;BME280;56128;37.534;-122.308;2023-03-03T11:41:00;101840.56;;;5.72;100.00
69058;BME280;56128;37.534;-122.308;2023-03-03T11:46:06;101835.09;;;5.77;100.00
69058;BME280;56128;37.534;-122.308;2023-03-03T11:48:49;101842.91;;;5.81;100.00
69058;BME280;56128;37.534;-122.308;2023-03-03T11:56:39;101842.66;;;5.88;100.00
69058;BME280;56128;37.534;-122.308;2023-03-03T12:01:41;101860.94;;;5.95;100.00
69058;BME280;56128;37.534;-122.308;2023-03-03T12:12:23;101850.97;;;6.02;100.00
69058;BME280;56128;37.534;-122.308;2023-03-03T12:14:56;101861.25;;;6.11;100.00
69058;BME280;56128;37.534;-122.308;2023-03-03T12:25:55;101848.38;;;6.23;100.00
69058;BME280;56128;37.534;-122.308;2023-03-03T12:28:38;101844.06;;;6.20;100.00
69058;BME280;56128;37.534;-122.308;2023-03-03T12:39:06;101826.88;;;6.29;100.00
69058;BME280;56128;37.534;-122.308;2023-03-03T12:42:06;101825.75;;;6.34;100.00
69058;BME280;56128;37.534;-122.308;2023-03-03T12:55:31;101831.38;;;6.49;100.00
69058;BME280;56128;37.534;-122.308;2023-03-03T13:01:11;101817.75;;;6.57;100.00
69058;BME280;56128;37.534;-122.308;2023-03-03T13:12:21;101780.88;;;6.47;100.00
69058;BME280;56128;37.534;-122.308;2023-03-03T13:17:44;101771.41;;;6.42;100.00
69058;BME280;56128;37.534;-122.308;2023-03-03T13:23:12;101774.13;;;6.40;100.00
69058;BME280;56128;37.534;-122.308;2023-03-03T13:25:51;101786.22;;;6.47;100.00
69058;BME280;56128;37.534;-122.308;2023-03-03T13:28:24;101795.81;;;6.52;100.00
69058;BME280;56128;37.534;-122.308;2023-03-03T13:33:36;101776.13;;;6.56;100.00
69058;BME280;56128;37.534;-122.308;2023-03-03T13:36:12;101778.69;;;6.57;100.00
69058;BME280;56128;37.534;-122.308;2023-03-03T13:38:44;101786.63;;;6.59;100.00
69058;BME280;56128;37.534;-122.308;2023-03-03T13:41:52;101796.28;;;6.61;100.00
69058;BME280;56128;37.534;-122.308;2023-03-03T13:44:33;101792.88;;;6.58;100.00
69058;BME280;56128;37.534;-122.308;2023-03-03T13:47:30;101794.47;;;6.62;100.00
69058;BME280;56128;37.534;-122.308;2023-03-03T13:55:41;101765.03;;;6.66;100.00
69058;BME280;56128;37.534;-122.308;2023-03-03T13:58:59;101758.25;;;6.59;100.00
69058;BME280;56128;37.534;-122.308;2023-03-03T14:04:49;101788.31;;;6.61;100.00
69058;BME280;56128;37.534;-122.308;2023-03-03T14:10:23;101790.16;;;6.59;100.00
69058;BME280;56128;37.534;-122.308;2023-03-03T14:13:08;101796.47;;;6.57;100.00
69058;BME280;56128;37.534;-122.308;2023-03-03T14:15:57;101785.28;;;6.48;100.00
69058;BME280;56128;37.534;-122.308;2023-03-03T14:18:39;101788.81;;;6.49;100.00
69058;BME280;56128;37.534;-122.308;2023-03-03T14:26:55;101801.72;;;6.38;100.00
69058;BME280;56128;37.534;-122.308;2023-03-03T14:31:51;101813.53;;;6.30;100.00
69058;BME280;56128;37.534;-122.308;2023-03-03T14:34:37;101817.09;;;6.29;100.00
69058;BME280;56128;37.534;-122.308;2023-03-03T14:37:42;101818.16;;;6.25;100.00
69058;BME280;56128;37.534;-122.308;2023-03-03T14:40:19;101816.50;;;6.23;100.00
69058;BME280;56128;37.534;-122.308;2023-03-03T14:45:35;101815.56;;;6.24;100.00
69058;BME280;56128;37.534;-122.308;2023-03-03T14:50:48;101824.16;;;6.30;100.00
69058;BME280;56128;37.534;-122.308;2023-03-03T14:55:50;101820.44;;;6.34;100.00
69058;BME280;56128;37.534;-122.308;2023-03-03T14:58:28;101815.13;;;6.34;100.00
69058;BME280;56128;37.534;-122.308;2023-03-03T15:01:34;101809.69;;;6.38;100.00
69058;BME280;56128;37.534;-122.308;2023-03-03T15:04:01;101810.34;;;6.43;100.00
69058;BME280;56128;37.534;-122.308;2023-03-03T15:06:45;101813.69;;;6.48;100.00
69058;BME280;56128;37.534;-122.308;2023-03-03T15:11:56;101819.47;;;6.58;100.00
69058;BME280;56128;37.534;-122.308;2023-03-03T15:14:38;101819.16;;;6.65;100.00
69058;BME280;56128;37.534;-122.308;2023-03-03T15:17:23;101817.28;;;6.68;100.00
69058;BME280;56128;37.534;-122.308;2023-03-03T15:23:12;101831.03;;;6.77;100.00
69058;BME280;56128;37.534;-122.308;2023-03-03T15:33:46;101854.78;;;7.03;100.00
69058;BME280;56128;37.534;-122.308;2023-03-03T15:36:27;101868.63;;;7.11;100.00
69058;BME280;56128;37.534;-122.308;2023-03-03T15:42:17;101862.50;;;7.29;100.00
69058;BME280;56128;37.534;-122.308;2023-03-03T15:45:02;101859.31;;;7.40;100.00
69058;BME280;56128;37.534;-122.308;2023-03-03T15:48:09;101856.09;;;7.53;100.00
69058;BME280;56128;37.534;-122.308;2023-03-03T15:56:03;101872.78;;;7.77;100.00
69058;BME280;56128;37.534;-122.308;2023-03-03T16:04:30;101857.59;;;7.98;100.00
69058;BME280;56128;37.534;-122.308;2023-03-03T16:07:08;101860.88;;;8.03;100.00
69058;BME280;56128;37.534;-122.308;2023-03-03T16:12:37;101855.38;;;8.06;100.00
69058;BME280;56128;37.534;-122.308;2023-03-03T16:23:50;101866.06;;;8.43;100.00
69058;BME280;56128;37.534;-122.308;2023-03-03T16:26:32;101867.53;;;8.50;100.00
69058;BME280;56128;37.534;-122.308;2023-03-03T16:29:27;101876.06;;;8.57;100.00
69058;BME280;56128;37.534;-122.308;2023-03-03T16:35:04;101873.81;;;8.67;100.00
69058;BME280;56128;37.534;-122.308;2023-03-03T16:37:53;101878.75;;;8.74;100.00
69058;BME280;56128;37.534;-122.308;2023-03-03T16:40:35;101873.81;;;8.84;100.00
69058;BME280;56128;37.534;-122.308;2023-03-03T16:45:58;101883.25;;;8.91;100.00